Latest Weather Observations for Moorabbin Airport

IDV60901

Issued at 5:51 am EST Sunday 26 April 2015 (issued every 10 minutes, with the page automatically refreshed every 10 minutes)

About weather observations | Map of Melbourne area stations | Latest observations for Melbourne area | Other Formats
Station Details ID: 086077 Name: MOORABBIN AIRPORT Lat: -37.98 Lon: 145.10 Height: 12.1 m
Data from the previous 72 hours. | See also: Recent months at Moorabbin Airport
Date/Time
EST
Tmp

°C
App
Tmp
°C
Dew
Point
°C
Rel
Hum
%
Delta-T

°C
Wind Press
QNH
hPa
Press
MSL
hPa
Rain
since
9 am
mm
Dir
 
Spd
km/h
Gust
km/h
Spd
kts
Gust
kts
26/05:30am 13.2 8.1 5.9 61 3.4 SSW 22 35 12 19 1015.7 1015.7 2.2
26/05:00am 13.1 7.8 6.9 66 3.0 SSW 24 33 13 18 1015.4 1015.4 2.2
26/04:30am 13.1 7.8 8.4 73 2.3 SSW 26 37 14 20 1015.3 1015.3 2.2
26/04:00am 13.3 7.4 7.5 68 2.8 SSW 28 39 15 21 1015.0 1015.0 2.2
26/03:30am 13.4 8.1 7.0 65 3.1 SW 24 33 13 18 1014.8 1014.8 2.2
26/03:00am 13.5 8.0 5.7 59 3.7 SW 24 32 13 17 1014.6 1014.6 2.2
26/02:30am 13.3 7.2 6.6 64 3.2 SW 28 39 15 21 1014.7 1014.7 2.2
26/02:00am 13.5 8.6 7.1 65 3.1 SW 22 33 12 18 1014.6 1014.6 2.2
26/01:30am 13.2 8.1 7.6 69 2.7 SW 24 39 13 21 1014.8 1014.8 2.2
26/01:00am 13.5 8.1 8.1 70 2.7 SW 26 39 14 21 1014.5 1014.5 2.2
26/12:30am 13.0 8.2 8.9 76 2.1 SSW 24 33 13 18 1014.4 1014.4 2.2
26/12:00am 12.7 7.6 10.6 87 1.1 SW 28 41 15 22 1014.0 1014.0 2.2
 
Date/Time
EST
Tmp

°C
App
Tmp
°C
Dew
Point
°C
Rel
Hum
%
Delta-T

°C
Wind Press
QNH
hPa
Press
MSL
hPa
Rain
since
9 am
mm
Dir
 
Spd
km/h
Gust
km/h
Spd
kts
Gust
kts
25/11:49pm 13.0 7.8 10.2 83 1.4 SW 28 46 15 25 1014.1 1014.1 2.2
25/11:30pm 13.6 7.6 10.0 79 1.9 SW 32 43 17 23 1013.7 1013.7 2.2
25/11:00pm 13.5 7.4 9.7 78 1.9 SW 32 52 17 28 1013.7 1013.7 2.2
25/10:34pm 14.1 8.7 9.5 74 2.4 SSW 28 48 15 26 1013.3 1013.3 2.2
25/10:30pm 14.1 8.7 9.5 74 2.4 SSW 28 44 15 24 1013.3 1013.3 2.2
25/10:00pm 14.2 8.2 10.0 76 2.2 SSW 32 44 17 24 1013.3 1013.3 2.2
25/09:30pm 14.2 8.3 10.4 78 2.0 SSW 32 44 17 24 1013.0 1013.0 2.2
25/09:00pm 14.2 7.8 10.8 80 1.8 SSW 35 48 19 26 1012.7 1012.7 2.2
25/08:30pm 14.4 9.2 11.6 83 1.5 SSW 30 43 16 23 1012.3 1012.3 2.2
25/08:00pm 14.2 10.3 12.1 87 1.1 SSW 24 35 13 19 1012.0 1012.0 2.2
25/07:40pm 13.9 11.6 13.0 94 0.5 SSW 17 26 9 14 1011.8 1011.8 1.8
25/07:30pm 13.9 11.2 12.8 93 0.6 SSW 19 28 10 15 1011.8 1011.8 1.6
25/07:23pm 14.0 11.0 12.4 90 0.9 SSW 20 30 11 16 1011.7 1011.7 1.4
25/07:00pm 14.5 11.6 12.2 86 1.2 SSW 19 30 10 16 1011.4 1011.4 1.2
25/06:30pm 14.3 12.7 11.6 84 1.4 SSW 11 17 6 9 1011.1 1011.1 1.2
25/06:00pm 14.6 11.3 11.0 79 1.9 SSW 19 28 10 15 1010.6 1010.6 1.2
25/05:30pm 14.4 11.7 11.7 84 1.4 SSW 17 24 9 13 1010.1 1010.1 1.2
25/05:00pm 14.3 11.3 12.0 86 1.2 SSW 19 28 10 15 1009.9 1009.9 1.0
25/04:30pm 14.6 12.9 12.6 88 1.1 SW 13 17 7 9 1009.6 1009.6 0.6
25/04:00pm 14.7 12.0 11.8 83 1.6 S 17 20 9 11 1009.4 1009.4 0.6
25/03:30pm 15.1 12.1 12.1 82 1.6 SSW 19 26 10 14 1009.1 1009.1 0.6
25/03:14pm 15.5 13.2 11.7 78 2.1 SSW 15 20 8 11 1008.9 1008.9 0.6
25/03:00pm 15.1 13.7 12.2 83 1.6 WSW 11 19 6 10 1008.7 1008.7 0.6
25/02:30pm 14.4 13.1 12.6 89 1.0 WNW 11 17 6 9 1008.6 1008.6 0.6
25/02:00pm 14.1 12.8 12.5 90 0.9 WNW 11 15 6 8 1008.5 1008.5 0.6
25/01:30pm 13.9 12.2 12.3 90 0.9 NW 13 17 7 9 1008.5 1008.5 0.6
25/01:00pm 13.4 11.6 12.1 92 0.7 NW 13 17 7 9 1008.5 1008.5 0.6
25/12:54pm 13.3 11.5 12.0 92 0.7 NW 13 17 7 9 1008.5 1008.5 0.6
25/12:30pm 13.1 11.6 12.0 93 0.6 NNW 11 15 6 8 1008.6 1008.6 0.6
25/12:22pm 12.9 11.3 11.6 92 0.7 NNW 11 17 6 9 1008.7 1008.7 0.6
25/12:00pm 12.7 10.7 11.4 92 0.7 NW 13 19 7 10 1008.9 1008.9 0.4
25/11:55am 12.6 10.5 11.3 92 0.7 NW 13 17 7 9 1009.0 1009.0 0.4
25/11:30am 12.6 10.5 11.2 91 0.7 NNW 13 15 7 8 1008.9 1008.9 0.2
25/11:05am 12.6 10.5 11.2 91 0.7 NNW 13 17 7 9 1009.0 1009.0 0.2
25/11:00am 12.4 9.9 11.0 91 0.7 NW 15 20 8 11 1009.0 1009.0 0.2
25/10:30am 12.7 10.7 11.4 92 0.7 NW 13 20 7 11 1008.9 1008.9 0.2
25/10:00am 12.6 10.9 11.2 91 0.7 NNW 11 13 6 7 1008.8 1008.8 0.2
25/09:52am 12.6 10.8 11.0 90 0.8 N 11 15 6 8 1009.0 1009.0 0.0
25/09:30am 12.4 10.9 10.6 89 0.9 N 9 11 5 6 1008.8 1008.8 0.0
25/09:00am 12.5 10.6 10.6 88 1.0 NNE 11 13 6 7 1008.6 1008.6 6.6
25/08:30am 12.5 12.3 10.4 87 1.1 WNW 2 6 1 3 1008.1 1008.1 6.6
25/08:00am 12.3 11.3 10.2 87 1.1 NW 6 9 3 5 1007.8 1007.8 6.6
25/07:30am 12.3 10.3 10.0 86 1.2 NNW 11 15 6 8 1007.7 1007.7 6.6
25/07:00am 12.4 10.4 10.0 85 1.2 NW 11 15 6 8 1007.5 1007.5 6.6
25/06:30am 12.7 10.7 10.1 84 1.3 W 11 19 6 10 1007.2 1007.2 6.6
25/06:00am 12.7 10.3 10.2 85 1.3 W 13 20 7 11 1006.7 1006.7 6.6
25/05:30am 12.5 9.4 10.4 87 1.1 W 17 20 9 11 1006.3 1006.3 6.6
25/05:00am 12.5 10.2 10.4 87 1.1 W 13 17 7 9 1006.4 1006.4 6.6
25/04:56am 12.6 10.3 10.5 87 1.1 W 13 19 7 10 1006.4 1006.4 6.6
25/04:30am 12.7 11.0 11.1 90 0.8 W 11 15 6 8 1006.2 1006.2 6.6
25/04:00am 12.8 11.7 11.9 94 0.5 W 9 13 5 7 1006.1 1006.1 6.6
25/03:38am 12.9 12.9 12.4 97 0.3 WNW 4 7 2 4 1006.0 1006.0 6.6
25/03:30am 12.9 13.7 12.4 97 0.3 CALM 0 2 0 1 1005.9 1005.9 6.6
25/03:00am 13.0 12.4 12.4 96 0.3 NNE 7 7 4 4 1005.9 1005.9 6.6
25/02:30am 13.1 13.4 12.3 95 0.4 NNW 2 7 1 4 1006.1 1006.1 6.6
25/02:00am 13.1 13.8 12.2 94 0.5 CALM 0 0 0 0 1006.2 1006.2 6.6
25/01:30am 13.3 12.9 12.4 94 0.5 NW 6 7 3 4 1006.4 1006.4 6.6
25/01:00am 13.4 13.0 12.3 93 0.6 NW 6 9 3 5 1006.5 1006.5 6.6
25/12:30am 13.4 12.9 12.5 94 0.5 NW 7 9 4 5 1006.5 1006.5 6.6
25/12:06am 13.4 13.0 12.3 93 0.6 NW 6 7 3 4 1006.4 1006.4 6.6
25/12:00am 13.5 13.2 12.6 94 0.5 WNW 6 7 3 4 1006.4 1006.4 6.6
 
Date/Time
EST
Tmp

°C
App
Tmp
°C
Dew
Point
°C
Rel
Hum
%
Delta-T

°C
Wind Press
QNH
hPa
Press
MSL
hPa
Rain
since
9 am
mm
Dir
 
Spd
km/h
Gust
km/h
Spd
kts
Gust
kts
24/11:30pm 13.6 13.1 12.8 95 0.4 NNW 7 11 4 6 1006.5 1006.5 6.4
24/11:17pm 13.5 13.0 12.7 95 0.4 WNW 7 11 4 6 1006.4 1006.4 6.4
24/11:00pm 13.5 12.3 12.9 96 0.3 WSW 11 15 6 8 1006.1 1006.1 6.4
24/10:30pm 13.5 11.9 12.9 96 0.3 WSW 13 20 7 11 1006.2 1006.2 6.4
24/10:25pm 13.4 11.7 12.6 95 0.4 W 13 24 7 13 1006.2 1006.2 6.4
24/10:00pm 14.0 9.4 12.4 90 0.9 W 28 39 15 21 1005.9 1005.9 4.8
24/09:55pm 14.4 10.9 12.3 87 1.1 NW 22 39 12 21 1005.8 1005.8 2.2
24/09:30pm 14.6 15.6 13.3 92 0.7 CALM 0 0 0 0 1005.3 1005.3 1.2
24/09:03pm 14.8 15.9 13.5 92 0.7 CALM 0 0 0 0 1005.1 1005.1 1.2
24/09:00pm 14.9 16.0 13.6 92 0.7 CALM 0 0 0 0 1005.1 1005.1 1.2
24/08:46pm 14.9 16.0 13.4 91 0.8 CALM 0 0 0 0 1005.0 1005.0 1.2
24/08:30pm 14.9 15.9 13.3 90 0.9 CALM 0 0 0 0 1004.9 1004.9 1.2
24/08:00pm 15.1 14.4 13.1 88 1.1 NNE 9 9 5 5 1004.8 1004.8 1.2
24/07:37pm 15.7 15.9 13.0 84 1.5 NNW 4 7 2 4 1004.8 1004.8 1.2
24/07:30pm 15.5 15.6 12.8 84 1.5 SSW 4 9 2 5 1004.8 1004.8 1.2
24/07:15pm 16.4 15.9 12.0 75 2.4 WNW 6 11 3 6 1004.9 1004.9 0.6
24/07:00pm 16.5 16.7 11.9 74 2.5 N 2 6 1 3 1004.6 1004.6 0.0
24/06:30pm 16.5 16.8 12.1 75 2.4 N 2 6 1 3 1004.3 1004.3 0.0
24/06:00pm 16.4 17.1 12.2 76 2.3 CALM 0 0 0 0 1004.0 1004.0 0.0
24/05:30pm 16.8 16.1 11.9 73 2.7 WSW 7 11 4 6 1003.6 1003.6 0.0
24/05:00pm 17.4 15.7 12.3 72 2.8 WSW 13 19 7 10 1003.4 1003.4 0.0
24/04:30pm 17.4 16.0 12.3 72 2.8 SW 11 15 6 8 1003.0 1003.0 0.0
24/04:00pm 17.8 15.7 12.5 71 3.0 SW 15 22 8 12 1002.8 1002.8 0.0
24/03:30pm 17.6 16.0 12.9 74 2.6 SW 13 20 7 11 1003.0 1003.0 0.0
24/03:00pm 17.3 14.9 12.8 75 2.5 SW 17 24 9 13 1003.1 1003.1 0.0
24/02:30pm 17.2 14.8 12.5 74 2.6 SW 17 22 9 12 1003.1 1003.1 0.0
24/02:00pm 17.6 15.5 13.5 77 2.3 SW 17 22 9 12 1003.0 1003.0 0.0
24/01:30pm 19.1 17.6 11.9 63 4.0 WSW 11 17 6 9 1003.1 1003.1 0.0
24/01:00pm 19.2 17.1 11.3 60 4.3 NW 13 19 7 10 1003.4 1003.4 0.0
24/12:30pm 18.9 16.4 11.2 61 4.2 NW 15 22 8 12 1003.7 1003.7 0.0
24/12:00pm 19.0 16.1 11.1 60 4.3 NW 17 24 9 13 1004.1 1004.1 0.0
24/11:30am 18.3 16.4 11.8 66 3.6 NW 13 20 7 11 1004.7 1004.7 0.0
24/11:00am 18.1 16.3 12.1 68 3.3 NW 13 20 7 11 1004.7 1004.7 0.0
24/10:30am 16.6 14.7 11.7 73 2.7 WNW 13 17 7 9 1005.0 1005.0 0.0
24/10:00am 16.4 14.9 11.8 74 2.5 WNW 11 17 6 9 1005.3 1005.3 0.0
24/09:30am 16.0 14.7 12.4 79 2.0 NW 11 15 6 8 1005.4 1005.4 0.0
24/09:00am 15.7 14.6 13.0 84 1.5 NNW 11 13 6 7 1005.4 1005.4 0.0
24/08:30am 15.2 14.6 13.6 90 0.9 NNW 9 15 5 8 1005.3 1005.3 0.0
24/08:00am 14.8 14.4 14.0 95 0.5 N 9 13 5 7 1005.5 1005.5 0.0
24/07:30am 14.3 14.3 13.7 96 0.3 NNW 6 9 3 5 1005.2 1005.2 0.0
24/07:00am 14.5 14.0 13.9 96 0.3 N 9 11 5 6 1005.0 1005.0 0.0
24/06:58am 14.5 14.0 13.9 96 0.3 N 9 11 5 6 1005.0 1005.0 0.0
24/06:30am 14.6 14.2 14.1 97 0.3 NW 9 13 5 7 1004.9 1004.9 0.0
24/06:00am 14.4 14.6 14.1 98 0.2 NNW 6 7 3 4 1004.8 1004.8 0.0
24/05:54am 14.3 14.4 14.0 98 0.2 N 6 7 3 4 1004.8 1004.8 0.0
24/05:30am 14.5 14.6 14.0 97 0.3 N 6 7 3 4 1005.0 1005.0 0.0
24/05:22am 14.5 15.0 14.0 97 0.3 NNW 4 7 2 4 1005.1 1005.1 0.0
24/05:00am 14.2 13.9 13.4 95 0.4 N 7 9 4 5 1005.1 1005.1 0.0
24/04:54am 14.5 14.9 13.7 95 0.4 N 4 7 2 4 1005.1 1005.1 0.0
24/04:30am 15.0 16.3 14.2 95 0.5 CALM 0 6 0 3 1005.2 1005.2 0.0
24/04:28am 15.0 16.0 14.2 95 0.5 NNW 2 6 1 3 1005.2 1005.2 0.0
24/04:00am 15.2 14.8 14.2 94 0.6 NW 9 13 5 7 1005.7 1005.7 0.0
24/03:30am 15.2 14.9 14.4 95 0.5 NW 9 15 5 8 1005.9 1005.9 0.0
24/03:00am 15.1 14.5 14.5 96 0.3 NW 11 17 6 9 1006.2 1006.2 0.0
24/02:30am 14.7 14.4 14.4 98 0.2 NNW 9 11 5 6 1006.8 1006.8 0.0
24/02:18am 14.4 14.4 14.1 98 0.2 N 7 9 4 5 1006.7 1006.7 0.0
24/02:00am 14.2 14.3 13.9 98 0.2 N 6 7 3 4 1006.9 1006.9 0.0
24/01:30am 14.1 14.9 13.6 97 0.3 N 2 7 1 4 1007.3 1007.3 0.0
24/01:00am 14.1 15.2 13.5 96 0.3 CALM 0 0 0 0 1007.5 1007.5 0.0
24/12:30am 14.2 15.3 13.4 95 0.4 CALM 0 0 0 0 1008.0 1008.0 0.0
24/12:00am 14.5 15.3 13.7 95 0.4 N 2 6 1 3 1008.4 1008.4 0.0
 
Date/Time
EST
Tmp

°C
App
Tmp
°C
Dew
Point
°C
Rel
Hum
%
Delta-T

°C
Wind Press
QNH
hPa
Press
MSL
hPa
Rain
since
9 am
mm
Dir
 
Spd
km/h
Gust
km/h
Spd
kts
Gust
kts
23/11:30pm 14.4 15.5 13.4 94 0.6 CALM 0 4 0 2 1008.7 1008.7 0.0
23/11:00pm 14.4 14.7 13.3 93 0.6 ESE 4 7 2 4 1009.1 1009.1 0.0
23/10:30pm 14.4 14.2 13.1 92 0.7 SSE 6 7 3 4 1009.5 1009.5 0.0
23/10:00pm 14.7 14.4 13.2 91 0.8 SE 7 9 4 5 1009.9 1009.9 0.0
23/09:30pm 15.0 14.7 13.4 90 0.9 SE 7 11 4 6 1010.4 1010.4 0.0
23/09:00pm 15.4 14.0 13.4 88 1.1 SE 13 15 7 8 1010.5 1010.5 0.0
23/08:30pm 15.8 13.7 13.5 86 1.3 SSE 17 20 9 11 1010.7 1010.7 0.0
23/08:00pm 16.1 14.3 13.4 84 1.5 SSE 15 20 8 11 1011.1 1011.1 0.0
23/07:30pm 16.4 14.6 13.3 82 1.7 SSE 15 20 8 11 1011.4 1011.4 0.0
23/07:00pm 16.5 14.7 13.2 81 1.8 SSE 15 20 8 11 1011.7 1011.7 0.0
23/06:30pm 16.8 14.2 13.3 80 2.0 SSE 19 24 10 13 1011.9 1011.9 0.0
23/06:00pm 17.1 14.9 13.4 79 2.1 SSE 17 24 9 13 1011.9 1011.9 0.0
23/05:30pm 17.5 15.0 13.4 77 2.3 SSE 19 24 10 13 1012.0 1012.0 0.0
23/05:00pm 17.8 15.6 13.3 75 2.5 SSE 17 22 9 12 1011.9 1011.9 0.0
23/04:30pm 17.9 15.4 13.4 75 2.5 SSE 19 22 10 12 1012.0 1012.0 0.0
23/04:00pm 18.2 15.1 13.5 74 2.7 SSE 22 28 12 15 1012.1 1012.1 0.0
23/03:30pm 18.5 16.1 13.8 74 2.7 SSE 19 28 10 15 1012.4 1012.4 0.0
23/03:00pm 18.3 15.6 13.4 73 2.8 SSE 20 28 11 15 1012.9 1012.9 0.0
23/02:30pm 18.1 14.5 13.0 72 2.9 SE 24 32 13 17 1013.2 1013.2 0.0
23/02:00pm 18.2 15.4 13.1 72 2.9 SE 20 26 11 14 1013.6 1013.6 0.0
23/01:30pm 18.3 15.1 13.2 72 2.9 SE 22 30 12 16 1014.1 1014.1 0.0
23/01:00pm 18.2 14.6 12.9 71 3.0 SE 24 30 13 16 1014.6 1014.6 0.0
23/12:30pm 18.2 14.6 12.9 71 3.0 SE 24 30 13 16 1015.2 1015.2 0.0
23/12:00pm 17.6 14.6 12.7 73 2.7 SE 20 28 11 15 1016.1 1016.1 0.0
23/11:30am 17.4 14.4 12.7 74 2.6 SE 20 24 11 13 1016.9 1016.9 0.0
23/11:00am 16.7 13.5 12.0 74 2.6 SE 20 28 11 15 1017.6 1017.6 0.0
23/10:30am 17.0 13.9 12.1 73 2.7 SSE 20 28 11 15 1017.8 1017.8 0.0
23/10:00am 16.9 14.2 12.8 77 2.3 SE 19 24 10 13 1018.0 1018.0 0.0
23/09:30am 16.1 13.1 12.5 79 2.0 SE 20 28 11 15 1018.3 1018.3 0.0
23/09:00am 15.4 12.7 12.9 85 1.4 SE 19 28 10 15 1018.6 1018.6 0.0
23/08:30am 14.3 12.2 12.5 89 1.0 SSE 15 20 8 11 1018.8 1018.8 0.0
23/08:00am 13.6 11.5 12.5 93 0.6 SE 15 19 8 10 1018.8 1018.8 0.0
23/07:30am 12.9 10.7 12.0 94 0.5 SSE 15 20 8 11 1018.7 1018.7 0.0
23/07:00am 12.9 10.3 12.1 95 0.4 SE 17 20 9 11 1018.6 1018.6 0.0
23/06:30am 12.4 11.6 11.6 95 0.4 SE 7 11 4 6 1019.0 1019.0 0.0
23/06:00am 12.1 11.2 11.3 95 0.4 SSE 7 9 4 5 1019.0 1019.0 0.0

Latest Capital City Observations: Canberra | Sydney | Melbourne | Brisbane | Adelaide | Perth | Hobart | Darwin

Other Formats:

Comma delimited format used in spreadsheet applications
http://www.bom.gov.au/fwo/IDV60901/IDV60901.94870.axf

JavaScript Object Notation format (JSON) in row-major order
http://www.bom.gov.au/fwo/IDV60901/IDV60901.94870.json